LNG Dream — C6VO5 — position and weather

sailwx.info

Track history (hours):
 
Tides and Currents Weather Stations Pressure Air Temp Water Temp Dewpoint Dewpoint Depression Visibility Wind Speed Wind Dir Waves Ship Positions

LNG Dream

Last reported at 2017-Apr-17 05:54 UTC. Time now 2017-Apr-28 12:08 UTC.
Position N 33°58' E 134°55'.
Warning: this ship's position is 11 days out of date.

Length 289.6 m; beam 49 m.

Type: Ship (hazmat cat A). MMSI: 309065000.

Date/timePositionNaut miles runAvg speedWind from/ knotsBaromVisibWave heightAir tempDewpointWater temp
2017-Apr-17 05:54N 33°58' E 134°55'410.6
2017-Apr-17 05:30N 34°02' E 134°56'611.6
2017-Apr-17 05:00N 34°07' E 134°57'611.5
2017-Apr-17 04:29N 34°13' E 134°58'5 9.0
2017-Apr-17 03:57N 34°18' E 134°59'612.9
2017-Apr-17 03:30N 34°23' E 135°01'715.0
2017-Apr-17 03:00N 34°28' E 135°08'815.5
2017-Apr-17 02:30N 34°32' E 135°16'612.2
2017-Apr-17 02:00N 34°33' E 135°23'1 2.3
2017-Apr-17 01:30N 34°33' E 135°25'0 0.0
2017-Apr-17 01:00N 34°33' E 135°25'0 0.0
2017-Apr-17 00:30N 34°33' E 135°25'0 0.0
2017-Apr-17 00:00N 34°33' E 135°25'0 0.0
2017-Apr-16 02:17N 34°33' E 135°25'0 1.6
2017-Apr-16 02:00N 34°33' E 135°24'3 6.9
2017-Apr-16 01:30N 34°33' E 135°20'5 9.4
2017-Apr-16 01:00N 34°31' E 135°15'510.3
2017-Apr-16 00:30N 34°28' E 135°10'611.8
2017-Apr-16 00:00N 34°24' E 135°05'713.5
2017-Apr-15 23:30N 34°19' E 134°60'713.3
2017-Apr-15 23:00N 34°12' E 134°59'510.7
2017-Apr-15 22:30N 34°07' E 134°60'611.4
2017-Apr-15 22:00N 34°01' E 134°59'610.6
2017-Apr-15 21:26N 33°55' E 134°60'  
Track history (hours):
 
Tides and Currents Weather Stations Pressure Air Temp Water Temp Dewpoint Dewpoint Depression Visibility Wind Speed Wind Dir Waves Ship Positions

LNG Dream

Last reported at 2017-Apr-17 05:54 UTC. Time now 2017-Apr-28 12:08 UTC.
Position N 33°58' E 134°55'.
Warning: this ship's position is 11 days out of date.

Length 289.6 m; beam 49 m.

Type: Ship (hazmat cat A). MMSI: 309065000.

Date/timePositionNaut miles runAvg speedWind from/ knotsBaromVisibWave heightAir tempDewpointWater temp
2017-Apr-17 05:54N 33°58' E 134°55'410.6
2017-Apr-17 05:30N 34°02' E 134°56'611.6
2017-Apr-17 05:00N 34°07' E 134°57'611.5
2017-Apr-17 04:29N 34°13' E 134°58'5 9.0
2017-Apr-17 03:57N 34°18' E 134°59'612.9
2017-Apr-17 03:30N 34°23' E 135°01'715.0
2017-Apr-17 03:00N 34°28' E 135°08'815.5
2017-Apr-17 02:30N 34°32' E 135°16'612.2
2017-Apr-17 02:00N 34°33' E 135°23'1 2.3
2017-Apr-17 01:30N 34°33' E 135°25'0 0.0
2017-Apr-17 01:00N 34°33' E 135°25'0 0.0
2017-Apr-17 00:30N 34°33' E 135°25'0 0.0
2017-Apr-17 00:00N 34°33' E 135°25'0 0.0
2017-Apr-16 02:17N 34°33' E 135°25'0 1.6
2017-Apr-16 02:00N 34°33' E 135°24'3 6.9
2017-Apr-16 01:30N 34°33' E 135°20'5 9.4
2017-Apr-16 01:00N 34°31' E 135°15'510.3
2017-Apr-16 00:30N 34°28' E 135°10'611.8
2017-Apr-16 00:00N 34°24' E 135°05'713.5
2017-Apr-15 23:30N 34°19' E 134°60'713.3
2017-Apr-15 23:00N 34°12' E 134°59'510.7
2017-Apr-15 22:30N 34°07' E 134°60'611.4
2017-Apr-15 22:00N 34°01' E 134°59'610.6
2017-Apr-15 21:26N 33°55' E 134°60'  

Dump ship's entire track history